RKSSRKNY

Guest
Details From RKSS - Seoul Gimpo
To RKNY - YANGYANG INTL
Flight Number -
Tags generated
Created
Modified
Stats Distance 94 nm / 174 km
Max Altitude 0 ft / 0 m
Waypoints 2
Social Downloads 0
Likes 0
Share VATSIM

Download

Looking for another format? Having issues loading an existing format? Contact us
Advertisement - Login to hide

Notes

Basic altitude profile: - Ascent Rate: 2500ft/min - Ascent Speed: 250kts - Cruise Altitude: 15000ft - Cruise Speed: 420kts - Descent Rate: 1500ft/min - Descent Speed: 250kts Options: - Use NATs: no - Use PACOTS: no - Use low airways: no - Use high airways: no

Route

RKSS RKNY

ID Type Via Altitude Latitude Longitude Leg Dist Tot Dist Heading (true) Name
O RKSS APT - 0 ft / 0 m 37.55831˚ 126.79058˚ - 0 nm - Seoul Gimpo
O RKNY APT - 0 ft / 0 m 38.06131˚ 128.66916˚ 94 nm 94 nm 71° / 72° YANGYANG INTL

Altitude Profile

Advertisement - Login to hide

RKSS

Details ICAO RKSS (GMP)
Name Seoul Gimpo
Region South Korea
Timezone Asia/Seoul (UTC+9.0)
Stats Elevation 58 ft / 18 m (AMSL)
Location 37.558310° 126.790584°
Runways 2
Magnetic Variation 8.397° W

METAR

RKSS 151600Z 34004KT 6000 FEW025 M05/M10 Q1027 NOSIG

Decode

TAF

TAF RKSS 151100Z 1512/1618 32007KT 7000 FEW010 BKN025 OVC120 TNM09/1521Z TXM01/1606Z BECMG 1514/1515 SCT030 BECMG 1604/1605 33015G25KT FEW010 BKN025 OVC120 BECMG 1608/1609 SCT030 BECMG 1614/1615 33008KT

Decode

Departure Runways

ID Width Length Bearing (true) Bearing (mag) Surface Threshold Offset Overrun Length
14L 148 ft / 45 m 11,811 ft / 3,600 m 135.13° 143.53° Asphalt 0 ft / 0 m 394 ft / 120 m
14R 197 ft / 60 m 10,499 ft / 3,200 m 135.08° 143.48° Asphalt 0 ft / 0 m 390 ft / 119 m
32L 197 ft / 60 m 10,499 ft / 3,200 m 315.09° 323.49° Asphalt 0 ft / 0 m 385 ft / 117 m
32R 148 ft / 45 m 11,811 ft / 3,600 m 315.15° 323.55° Asphalt 0 ft / 0 m 394 ft / 120 m

RKNY

Details ICAO RKNY (YNY)
Name YANGYANG INTL
Region South Korea
Timezone Asia/Seoul (UTC+9.0)
Stats Elevation 241 ft / 73 m (AMSL)
Location 38.061310° 128.669161°
Runways 1
Magnetic Variation 8.713° W

METAR

RKNY 151600Z AUTO 27010KT 9999 NCD 01/M06 Q1021

Decode

TAF

Not found

Destination Runways

ID Width Length Bearing (true) Bearing (mag) Surface Threshold Offset Overrun Length
15 148 ft / 45 m 8,205 ft / 2,501 m 141.07° 149.78° Asphalt 0 ft / 0 m 400 ft / 122 m
33 148 ft / 45 m 8,205 ft / 2,501 m 321.08° 329.79° Asphalt 0 ft / 0 m 400 ft / 122 m

Approach Navaids

Runway Type Ident Frequency Range Bearing (true) Bearing (mag) Slope Elevation
33 Localiser IYAN 109.30 MHz 18 nm / 33 km 320.98° 329.69° - 229 ft / 70 m (AMSL)
33 Glidescope IYAN 109.30 MHz 10 nm / 19 km 320.94° 329.65° 3.00° 233 ft / 71 m (AMSL)
33 DME IYAN 109.30 MHz 18 nm / 33 km - - - 11 ft / 3 m (AMSL)

Popular Alternatives